Broughton, Illinois
Current Conditions -  °F | °C
As of 12:35 AM on Monday 26 Jan 2015 (Local Time) from KHSB Reporting Station
Overcast Overcast  
Wind Chill: 24°   Ceiling: 1600
Heat Index: 33°   Visibility: 10mi
Dew Point: 30°   Wind: 13mph
Humidity: 87%   Direction: 340°NNW
Pressure: 29.94"   Gusts: 21mph
Location:  37.93°N, 88.46°W
Report Text: KHSB 260635Z AUTO 34011G18KT 10SM OVC016 01/M01 A2994 RMK AO2 T00071012
Loading
Personal Weather Stations






























Interactive Weather Map New forecast layout! Learn more

10-Day Weather Forecast

Advertisements
Track Severe Weather on mobile